Flight Track Log - Related Links

Times and Time Zones

All times are in EDT time to prevent confusion due to time zone crossing. See the N37227 flight status page for this flight to view local times or setup timezone preferences in your user account.

Time Position Orientation Groundspeed Altitude Reporting Facility
EDT Latitude Longitude Course Direction KTS MPH feet Rate Location/Type
Tue 10:33:51 AM 26.5894 -77.7875 256° West 130 150 4,900  Level Miami Center
Tue 10:34:53 AM 26.5725 -77.8319 247° West 128 147 5,700 677 Climbing Miami Center
Tue 10:35:55 AM 26.5572 -77.8694 246° West 130 150 6,300 585 Climbing Miami Center
Tue 10:36:56 AM 26.5433 -77.9111 250° West 136 157 6,900 585 Climbing Miami Center
Tue 10:37:58 AM 26.5308 -77.9525 251° West 139 160 7,500 532 Climbing Miami Center
Tue 10:39:00 AM 26.6898 -77.7041 256° West  Level FlightAware Approximate
Tue 10:39:00 AM 26.5189 -77.9947 252° West 140 161 8,000  Level Miami Center
Tue 10:40:02 AM 26.5242 -78.0425 277° West 150 173 8,100 49 Climbing Miami Center
Tue 10:41:03 AM 26.5264 -78.0969 273° West 169 194 8,100  Level Miami Center
Tue 10:42:05 AM 26.5281 -78.1525 272° West 174 200 8,100  Level Miami Center
Tue 10:43:07 AM 26.5317 -78.2181 274° West 177 204 8,100  Level Miami Center
Tue 10:44:09 AM 26.5342 -78.2744 273° West 179 206 8,100  Level Miami Center
Tue 10:45:10 AM 26.5372 -78.3292 274° West 179 206 8,100  Level Miami Center
Tue 10:46:12 AM 26.5392 -78.3842 272° West 179 206 8,100  Level Miami Center
Tue 10:47:14 AM 26.5428 -78.4392 274° West 178 205 8,100  Level Miami Center
Tue 10:48:16 AM 26.5453 -78.4931 273° West 178 205 8,100  Level Miami Center
Tue 10:49:18 AM 26.5478 -78.5481 273° West 177 204 8,100  Level Miami Center
Tue 10:50:19 AM 26.5506 -78.6031 273° West 177 204 8,100  Level Miami Center
Tue 10:51:21 AM 26.5511 -78.6589 271° West 177 204 8,100  Level Miami Center
Tue 10:52:23 AM 26.5533 -78.7169 272° West 177 204 8,100  Level Miami Center
Tue 10:53:25 AM 26.5500 -78.7822 267° West 175 201 8,100  Level Miami Center
Tue 10:54:27 AM 26.5472 -78.8364 267° West 175 201 8,100  Level Miami Center
Tue 10:55:29 AM 26.5447 -78.8900 267° West 175 201 8,100  Level Miami Center
Tue 10:56:31 AM 26.5422 -78.9453 267° West 176 203 8,100  Level Miami Center
Tue 10:57:33 AM 26.5400 -79.0000 267° West 176 203 8,100  Level Miami Center
Tue 10:58:35 AM 26.5378 -79.0542 267° West 176 203 8,100  Level Miami Center
Tue 10:59:37 AM 26.5347 -79.1078 266° West 175 201 8,100  Level Miami Center
Tue 11:00:39 AM 26.5311 -79.1731 266° West 176 203 8,100 -48 Level Miami Center
Tue 11:01:41 AM 26.5281 -79.2278 266° West 176 203 8,000 -242 Descending Miami Center
Tue 11:02:43 AM 26.5258 -79.2853 268° West 183 211 7,600 -532 Descending Miami Center
Tue 11:03:45 AM 26.5233 -79.3489 267° West 189 217 6,900 -532 Descending Miami Center
Tue 11:04:47 AM 26.5189 -79.4072 265° West 190 219 6,500 -387 Descending Miami Center
Tue 11:05:49 AM 26.5164 -79.4703 267° West 190 219 6,100 -242 Descending Miami Center
Tue 11:06:51 AM 26.5122 -79.5253 265° West 180 207 6,000 -48 Descending Miami Center
Tue 11:07:53 AM 26.4936 -79.5772 248° West 173 199 6,000  Level Miami Center
Tue 11:08:41 AM 26.4717 -79.6122 235° Southwest 172 198 6,000  Level Miami Center
Tue 11:08:55 AM 26.4658 -79.6200 230° Southwest 173 199 6,000  Level Miami Center
Tue 11:09:54 AM 26.4372 -79.6633 234° Southwest 170 196 6,000  Level Miami Center
Tue 11:10:55 AM 26.4094 -79.7078 235° Southwest 169 194 6,000  Level Miami Center
Tue 11:11:56 AM 26.3739 -79.7422 221° Southwest 179 206 6,000  Level Miami Center
Tue 11:12:57 AM 26.3303 -79.7717 211° Southwest 175 201 6,000  Level Miami Center
Tue 11:14:05 AM 26.2844 -79.8006 209° Southwest 176 203 6,000  Level Miami Center
Tue 11:15:00 AM 26.2431 -79.8281 211° Southwest 177 204 6,000  Level Miami Center
Tue 11:16:00 AM 26.1997 -79.8528 207° Southwest 179 206 6,000  Level Miami Center
Tue 11:16:10 AM 26.1936 -79.8572 213° Southwest 179 206 6,000  Level Miami Center
Tue 11:17:01 AM 26.1525 -79.8747 201° Southwest 183 211 6,000  Level Miami Center
Tue 11:17:12 AM 26.1464 -79.8756 187° South 179 206 6,000  Level Miami Center
Tue 11:18:02 AM 26.1011 -79.8917 198° South 182 209 6,000  Level Miami Center
Tue 11:18:14 AM 26.0972 -79.8928 194° South 181 208 6,000  Level Miami Center
Tue 11:19:05 AM 26.0519 -79.9089 198° South 186 214 6,000  Level Miami Center
Tue 11:19:16 AM 26.0481 -79.9111 207° Southwest 184 212 6,000  Level Miami Center
Tue 11:20:05 AM 26.0044 -79.9333 205° Southwest 185 213 6,000  Level Miami Center
Tue 11:20:18 AM 26.0019 -79.9347 207° Southwest 184 212 6,000  Level Miami Center
Tue 11:21:06 AM 25.9628 -79.9650 215° Southwest 180 207 6,000  Level Miami Center
Tue 11:21:21 AM 25.9614 -79.9675 238° Southwest 183 211 6,000 -98 Level Miami Center
Tue 11:22:07 AM 25.9231 -79.9967 214° Southwest 177 204 5,900 -194 Descending Miami Center
Tue 11:22:23 AM 25.9119 -80.0036 209° Southwest 179 206 5,800 -716 Descending Miami Center
Tue 11:23:14 AM 25.8725 -80.0347 215° Southwest 198 228 5,100 -677 Descending Miami Center
Tue 11:23:25 AM 25.8675 -80.0372 204° Southwest 190 219 5,100 -436 Level Miami Center
Tue 11:24:09 AM 25.8331 -80.0642 215° Southwest 192 221 4,700 -484 Descending Miami Center
Tue 11:24:27 AM 25.8244 -80.0697 210° Southwest 190 219 4,600 -448 Descending Miami Center
Tue 11:25:16 AM 25.7892 -80.0978 216° Southwest 180 207 4,200 -484 Descending Miami Center
Tue 11:25:29 AM 25.7847 -80.1025 224° Southwest 181 208 4,100 -590 Descending Miami Center
Tue 11:27:18 AM 25.7053 -80.1631 134° Southeast 174 200 3,000 -576 Descending Miami Center
Tue 11:27:34 AM 25.7000 -80.1722 237° Southwest 173 199 2,900 -393 Descending Miami Center
Tue 11:28:19 AM 25.6817 -80.2053 238° Southwest 159 183 2,600 -387 Descending Miami Center
Tue 11:28:36 AM 25.6772 -80.2147 242° Southwest 161 185 2,500 -484 Descending Miami Center
Tue 11:29:21 AM 25.6606 -80.2453 239° Southwest 153 176 2,100 -387 Descending Miami Center
Tue 11:29:38 AM 25.6572 -80.2564 252° West 156 180 2,100 -295 Level Miami Center
Tue 11:30:22 AM 25.6492 -80.2906 255° West 150 173 1,800 -387 Descending Miami Center
Tue 11:30:40 AM 25.6492 -80.3008 270° West 151 174 1,700 -393 Descending Miami Center
Tue 11:31:23 AM 25.6461 -80.3389 265° West 145 167 1,400 -381 Descending Miami Center
Tue 11:31:43 AM 25.6472 -80.3453 281° West 149 171 1,300 -545 Descending Miami Center
Tue 11:32:18 AM 25.6461 -80.3736 268° West 120 138 900 -484 Descending Miami Center
Tue 11:32:45 AM 25.6453 -80.3814 263° West 123 142 800 -590 Descending Miami Center
Tue 11:33:19 AM 25.6436 -80.4103 266° West 120 138 300 -677 Descending Miami Center
Tue 11:33:47 AM 25.6439 -80.4183 272° West 121 139 100 -429 Descending Miami Center
Tue 11:34:00 AM 25.6333 -80.4167 246° West  Level FlightAware Approximate
Tue 11:35:00 AM 25.6476 -80.4332 42° Northeast  Level Estimated
Tue 11:36:00 AM 25.6476 -80.4332 246° West  Level Estimated
Tue 11:37:00 AM 25.6476 -80.4332 134° Southeast  Level Estimated

Login

Don't have an account? Register now (free) for customized features, flight alerts, and more!